createdAt,value
2016-05-16T00:00:25.006Z,965.32
2016-05-16T00:01:25.009Z,965.31
2016-05-16T00:02:25.027Z,965.3
2016-05-16T00:03:25.029Z,965.3
2016-05-16T00:04:25.032Z,965.31
2016-05-16T00:05:25.034Z,965.26
2016-05-16T00:06:25.054Z,965.3
2016-05-16T00:07:25.072Z,965.27
2016-05-16T00:08:25.075Z,965.26
2016-05-16T00:09:25.092Z,965.28
2016-05-16T00:10:25.095Z,965.25
2016-05-16T00:11:25.097Z,965.27
2016-05-16T00:12:25.116Z,965.26
2016-05-16T00:13:25.120Z,965.22
2016-05-16T00:14:25.122Z,965.23
2016-05-16T00:15:25.141Z,965.25
2016-05-16T00:16:25.143Z,965.25
2016-05-16T00:17:25.161Z,965.25
2016-05-16T00:18:25.163Z,965.26
2016-05-16T00:19:25.182Z,965.27
2016-05-16T00:20:25.185Z,965.29
2016-05-16T00:21:25.203Z,965.22
2016-05-16T00:22:25.205Z,965.23
2016-05-16T00:23:25.224Z,965.24
2016-05-16T00:24:25.227Z,965.22
2016-05-16T00:25:25.230Z,965.2
2016-05-16T00:26:25.248Z,965.21
2016-05-16T00:27:25.251Z,965.21
2016-05-16T00:28:25.269Z,965.16
2016-05-16T00:29:25.271Z,965.19
2016-05-16T00:30:25.274Z,965.17
2016-05-16T00:31:25.292Z,965.18
2016-05-16T00:32:25.312Z,965.16
2016-05-16T00:33:25.314Z,965.15
2016-05-16T00:34:25.317Z,965.15
2016-05-16T00:35:25.334Z,965.17
2016-05-16T00:36:25.337Z,965.09
2016-05-16T00:37:25.356Z,965.15
2016-05-16T00:38:25.358Z,965.12
2016-05-16T00:39:25.376Z,965.15
2016-05-16T00:40:25.379Z,965.13
2016-05-16T00:41:25.382Z,965.1
2016-05-16T00:42:25.400Z,965.12
2016-05-16T00:43:25.403Z,965.13
2016-05-16T00:44:25.421Z,965.12
2016-05-16T00:45:25.439Z,965.1
2016-05-16T00:46:25.442Z,965.11
2016-05-16T00:47:25.445Z,965.07
2016-05-16T00:48:25.463Z,965.1
2016-05-16T00:49:25.466Z,965.05
2016-05-16T00:50:25.469Z,965.1
2016-05-16T00:51:25.487Z,965.06
2016-05-16T00:52:25.490Z,965.05
2016-05-16T00:53:25.493Z,965.04
2016-05-16T00:54:25.511Z,965.03
2016-05-16T00:55:25.529Z,965.04
2016-05-16T00:56:25.532Z,965.02
2016-05-16T00:57:25.535Z,965
2016-05-16T00:58:25.553Z,964.99
2016-05-16T00:59:25.554Z,965
2016-05-16T01:00:25.589Z,965.01
2016-05-16T01:01:25.576Z,965.01
2016-05-16T01:02:25.579Z,965.01
2016-05-16T01:03:25.598Z,964.96
2016-05-16T01:04:25.615Z,964.96
2016-05-16T01:05:25.618Z,964.99
2016-05-16T01:06:25.620Z,964.96
2016-05-16T01:07:25.640Z,964.97
2016-05-16T01:08:25.658Z,964.93
2016-05-16T01:09:25.645Z,964.93
2016-05-16T01:10:25.664Z,964.95
2016-05-16T01:11:25.666Z,964.95
2016-05-16T01:12:25.684Z,964.94
2016-05-16T01:13:25.687Z,964.88
2016-05-16T01:14:25.706Z,964.89
2016-05-16T01:15:25.708Z,964.96
2016-05-16T01:16:25.710Z,964.98
2016-05-16T01:17:25.728Z,964.92
2016-05-16T01:18:25.731Z,964.95
2016-05-16T01:19:25.750Z,965
2016-05-16T01:20:25.753Z,964.9
2016-05-16T01:21:25.771Z,964.93
2016-05-16T01:22:25.773Z,964.96
2016-05-16T01:23:25.792Z,964.96
2016-05-16T01:24:25.795Z,964.9
2016-05-16T01:25:25.797Z,964.93
2016-05-16T01:26:25.799Z,964.96
2016-05-16T01:27:25.819Z,964.94
2016-05-16T01:28:25.820Z,964.97
2016-05-16T01:29:25.840Z,964.95
2016-05-16T01:30:25.842Z,964.92
2016-05-16T01:31:25.860Z,965
2016-05-16T01:32:25.863Z,965
2016-05-16T01:33:25.882Z,965.02
2016-05-16T01:34:25.884Z,965.03
2016-05-16T01:35:26.089Z,964.97
2016-05-16T01:36:25.904Z,964.99
2016-05-16T01:37:25.924Z,964.97
2016-05-16T01:38:25.926Z,964.99
2016-05-16T01:39:25.928Z,964.96
2016-05-16T01:40:25.932Z,964.97
2016-05-16T01:41:25.950Z,964.97
2016-05-16T01:42:25.952Z,965
2016-05-16T01:43:25.971Z,965.01
2016-05-16T01:44:25.973Z,964.99
2016-05-16T01:45:25.991Z,964.95
2016-05-16T01:46:25.995Z,964.98
2016-05-16T01:47:26.013Z,964.92
2016-05-16T01:48:26.015Z,964.98
2016-05-16T01:49:26.019Z,964.97
2016-05-16T01:50:26.302Z,964.96
2016-05-16T01:51:26.069Z,964.96
2016-05-16T01:52:26.129Z,964.91
2016-05-16T01:53:26.172Z,964.95
2016-05-16T01:54:26.229Z,964.96
2016-05-16T01:55:26.273Z,964.95
2016-05-16T01:56:26.312Z,964.97
2016-05-16T01:57:26.329Z,964.93
2016-05-16T01:58:26.363Z,964.93
2016-05-16T01:59:26.380Z,964.95
2016-05-16T02:00:26.412Z,964.95
2016-05-16T02:01:26.407Z,964.97
2016-05-16T02:02:26.431Z,964.92
2016-05-16T02:03:26.439Z,964.96
2016-05-16T02:04:26.463Z,964.92
2016-05-16T02:05:26.533Z,964.91
2016-05-16T02:06:26.492Z,964.88
2016-05-16T02:07:26.497Z,964.91
2016-05-16T02:08:26.516Z,964.91
2016-05-16T02:09:26.521Z,964.91
2016-05-16T02:10:26.526Z,964.86
2016-05-16T02:11:26.546Z,964.87
2016-05-16T02:12:26.564Z,964.87
2016-05-16T02:13:26.567Z,964.85
2016-05-16T02:14:26.571Z,964.86
2016-05-16T02:15:26.574Z,964.86
2016-05-16T02:16:26.593Z,964.86
2016-05-16T02:17:26.611Z,964.85
2016-05-16T02:18:26.615Z,964.83
2016-05-16T02:19:26.632Z,964.85
2016-05-16T02:20:26.634Z,964.81
2016-05-16T02:21:26.638Z,964.81
2016-05-16T02:22:26.656Z,964.82
2016-05-16T02:23:26.658Z,964.8
2016-05-16T02:24:26.678Z,964.8
2016-05-16T02:25:26.680Z,964.73
2016-05-16T02:26:26.714Z,964.78
2016-05-16T02:27:26.700Z,964.75
2016-05-16T02:28:26.703Z,964.74
2016-05-16T02:29:26.706Z,964.78
2016-05-16T02:30:26.725Z,964.74
2016-05-16T02:31:26.742Z,964.78
2016-05-16T02:32:26.745Z,964.75
2016-05-16T02:33:26.763Z,964.76
2016-05-16T02:34:26.767Z,964.75
2016-05-16T02:35:26.769Z,964.76
2016-05-16T02:36:26.788Z,964.79
2016-05-16T02:37:26.790Z,964.78
2016-05-16T02:38:26.808Z,964.77
2016-05-16T02:39:26.811Z,964.8
2016-05-16T02:40:26.814Z,964.8
2016-05-16T02:41:26.816Z,964.81
2016-05-16T02:42:26.834Z,964.79
2016-05-16T02:43:26.837Z,964.78
2016-05-16T02:44:26.856Z,964.81
2016-05-16T02:45:26.859Z,964.78
2016-05-16T02:46:26.876Z,964.8
2016-05-16T02:47:26.880Z,964.82
2016-05-16T02:48:26.898Z,964.78
2016-05-16T02:49:26.901Z,964.79
2016-05-16T02:50:26.903Z,964.76
2016-05-16T02:51:26.921Z,964.81
2016-05-16T02:52:26.955Z,964.81
2016-05-16T02:53:26.943Z,964.77
2016-05-16T02:54:26.961Z,964.77
2016-05-16T02:55:26.964Z,964.78
2016-05-16T02:56:26.966Z,964.8
2016-05-16T02:57:26.969Z,964.79
2016-05-16T02:58:26.987Z,964.77
2016-05-16T02:59:26.990Z,964.76
2016-05-16T03:00:27.008Z,964.78
2016-05-16T03:01:27.011Z,964.79
2016-05-16T03:02:27.030Z,964.75
2016-05-16T03:03:27.032Z,964.79
2016-05-16T03:04:27.035Z,964.78
2016-05-16T03:05:27.052Z,964.75
2016-05-16T03:06:27.086Z,964.75
2016-05-16T03:07:27.074Z,964.78
2016-05-16T03:08:27.077Z,964.76
2016-05-16T03:09:27.079Z,964.78
2016-05-16T03:10:27.097Z,964.76
2016-05-16T03:11:27.116Z,964.79
2016-05-16T03:12:27.119Z,964.76
2016-05-16T03:13:27.137Z,964.82
2016-05-16T03:14:27.140Z,964.78
2016-05-16T03:15:27.142Z,964.82
2016-05-16T03:16:27.160Z,964.78
2016-05-16T03:17:27.163Z,964.79
2016-05-16T03:18:27.166Z,964.79
2016-05-16T03:19:27.184Z,964.78
2016-05-16T03:20:27.765Z,964.78
2016-05-16T03:21:27.206Z,964.77
2016-05-16T03:22:27.208Z,964.75
2016-05-16T03:23:27.211Z,964.77
2016-05-16T03:24:27.229Z,964.77
2016-05-16T03:25:27.232Z,964.72
2016-05-16T03:26:27.250Z,964.74
2016-05-16T03:27:27.253Z,964.73
2016-05-16T03:28:27.270Z,964.71
2016-05-16T03:29:27.289Z,964.77
2016-05-16T03:30:27.276Z,964.76
2016-05-16T03:31:27.295Z,964.72
2016-05-16T03:32:27.297Z,964.74
2016-05-16T03:33:27.316Z,964.77
2016-05-16T03:34:27.319Z,964.76
2016-05-16T03:35:27.321Z,964.74
2016-05-16T03:36:27.339Z,964.76
2016-05-16T03:37:27.358Z,964.78
2016-05-16T03:38:27.360Z,964.77
2016-05-16T03:39:27.379Z,964.79
2016-05-16T03:40:27.382Z,964.78
2016-05-16T03:41:27.384Z,964.78
2016-05-16T03:42:27.402Z,964.79
2016-05-16T03:43:27.405Z,964.77
2016-05-16T03:44:27.408Z,964.75
2016-05-16T03:45:27.426Z,964.78
2016-05-16T03:46:27.429Z,964.78
2016-05-16T03:47:27.447Z,964.79
2016-05-16T03:48:27.449Z,964.75
2016-05-16T03:49:27.452Z,964.77
2016-05-16T03:50:27.471Z,964.79
2016-05-16T03:51:27.473Z,964.79
2016-05-16T03:52:27.492Z,964.8
2016-05-16T03:53:27.495Z,964.79
2016-05-16T03:54:27.512Z,964.8
2016-05-16T03:55:27.515Z,964.81
2016-05-16T03:56:27.534Z,964.87
2016-05-16T03:57:27.537Z,964.84
2016-05-16T03:58:27.539Z,964.8
2016-05-16T03:59:27.558Z,964.87
2016-05-16T04:00:27.560Z,964.91
2016-05-16T04:01:27.578Z,964.87
2016-05-16T04:02:27.581Z,964.84
2016-05-16T04:03:27.600Z,964.85
2016-05-16T04:04:27.602Z,964.89
2016-05-16T04:05:27.605Z,964.84
2016-05-16T04:06:27.623Z,964.88
2016-05-16T04:07:27.626Z,964.9
2016-05-16T04:08:27.644Z,964.87
2016-05-16T04:09:27.647Z,964.92
2016-05-16T04:10:27.665Z,964.9
2016-05-16T04:11:27.668Z,964.89
2016-05-16T04:12:27.671Z,964.87
2016-05-16T04:13:27.688Z,964.91
2016-05-16T04:14:27.691Z,964.88
2016-05-16T04:15:27.694Z,964.95
2016-05-16T04:16:27.713Z,964.92
2016-05-16T04:17:27.715Z,964.95
2016-05-16T04:18:27.734Z,964.98
2016-05-16T04:19:27.736Z,964.96
2016-05-16T04:20:27.754Z,964.96
2016-05-16T04:21:27.757Z,965.01
2016-05-16T04:22:27.776Z,964.97
2016-05-16T04:23:27.778Z,964.99
2016-05-16T04:24:27.781Z,965.03
2016-05-16T04:25:27.799Z,965.01
2016-05-16T04:26:27.801Z,965
2016-05-16T04:27:27.820Z,965.02
2016-05-16T04:28:27.823Z,965.01
2016-05-16T04:29:27.842Z,965.02
2016-05-16T04:30:27.844Z,965.01
2016-05-16T04:31:27.862Z,965.05
2016-05-16T04:32:27.864Z,965.01
2016-05-16T04:33:27.867Z,965.03
2016-05-16T04:34:27.886Z,965.02
2016-05-16T04:35:28.342Z,965.04
2016-05-16T04:36:27.891Z,965.03
2016-05-16T04:37:27.910Z,965.05
2016-05-16T04:38:27.913Z,965.08
2016-05-16T04:39:27.931Z,965.06
2016-05-16T04:40:27.933Z,965.04
2016-05-16T04:41:27.952Z,965.08
2016-05-16T04:42:27.955Z,965.02
2016-05-16T04:43:27.972Z,965.06
2016-05-16T04:44:27.975Z,965.05
2016-05-16T04:45:27.993Z,965.03
2016-05-16T04:46:27.996Z,965.05
2016-05-16T04:47:27.999Z,965.03
2016-05-16T04:48:28.002Z,965.01
2016-05-16T04:49:28.020Z,965.02
2016-05-16T04:50:28.038Z,965.05
2016-05-16T04:51:28.040Z,965.02
2016-05-16T04:52:28.044Z,965.01
2016-05-16T04:53:28.062Z,965.02
2016-05-16T04:54:28.065Z,965.02
2016-05-16T04:55:28.083Z,965.02
2016-05-16T04:56:28.086Z,965.01
2016-05-16T04:57:28.089Z,965
2016-05-16T04:58:28.106Z,964.98
2016-05-16T04:59:28.109Z,964.99
2016-05-16T05:00:28.112Z,964.97
2016-05-16T05:01:28.131Z,965.01
2016-05-16T05:02:28.133Z,965
2016-05-16T05:03:28.151Z,965
2016-05-16T05:04:28.153Z,965
2016-05-16T05:05:28.172Z,964.94
2016-05-16T05:06:28.175Z,964.97
2016-05-16T05:07:28.194Z,965.01
2016-05-16T05:08:28.196Z,964.96
2016-05-16T05:09:28.214Z,964.96
2016-05-16T05:10:28.217Z,964.97
2016-05-16T05:11:28.219Z,964.99
2016-05-16T05:12:28.222Z,964.98
2016-05-16T05:13:28.241Z,964.98
2016-05-16T05:14:28.244Z,964.97
2016-05-16T05:15:28.263Z,964.99
2016-05-16T05:16:28.265Z,964.95
2016-05-16T05:17:28.267Z,964.94
2016-05-16T05:18:28.285Z,964.91
2016-05-16T05:19:28.304Z,964.93
2016-05-16T05:20:28.604Z,964.92
2016-05-16T05:21:28.324Z,964.89
2016-05-16T05:22:28.327Z,964.88
2016-05-16T05:23:28.329Z,964.89
2016-05-16T05:24:28.349Z,964.86
2016-05-16T05:25:28.351Z,964.89
2016-05-16T05:26:28.354Z,964.93
2016-05-16T05:27:28.372Z,964.93
2016-05-16T05:28:28.390Z,964.94
2016-05-16T05:29:28.393Z,964.94
2016-05-16T05:30:28.395Z,964.92
2016-05-16T05:31:28.398Z,964.95
2016-05-16T05:32:28.417Z,964.92
2016-05-16T05:33:28.420Z,964.91
2016-05-16T05:34:28.439Z,964.94
2016-05-16T05:35:28.441Z,964.88
2016-05-16T05:36:28.458Z,964.9
2016-05-16T05:37:28.462Z,964.93
2016-05-16T05:38:28.480Z,964.91
2016-05-16T05:39:28.483Z,964.9
2016-05-16T05:40:28.485Z,964.94
2016-05-16T05:41:28.488Z,964.92
2016-05-16T05:42:28.505Z,964.92
2016-05-16T05:43:28.525Z,964.92
2016-05-16T05:44:28.527Z,964.91
2016-05-16T05:45:28.530Z,964.9
2016-05-16T05:46:28.548Z,964.9
2016-05-16T05:47:28.552Z,964.93
2016-05-16T05:48:28.553Z,964.94
2016-05-16T05:49:28.572Z,964.91
2016-05-16T05:50:28.574Z,964.92
2016-05-16T05:51:28.593Z,964.96
2016-05-16T05:52:28.595Z,964.9
2016-05-16T05:53:28.615Z,964.92
2016-05-16T05:54:28.617Z,964.91
2016-05-16T05:55:28.635Z,964.91
2016-05-16T05:56:28.638Z,964.89
2016-05-16T05:57:28.640Z,964.89
2016-05-16T05:58:28.659Z,964.89
2016-05-16T05:59:28.661Z,964.88
2016-05-16T06:00:28.679Z,964.92
2016-05-16T06:01:28.682Z,964.94
2016-05-16T06:02:28.701Z,964.89
2016-05-16T06:03:28.703Z,964.93
2016-05-16T06:04:28.706Z,964.9
2016-05-16T06:05:28.725Z,964.91
2016-05-16T06:06:28.727Z,964.88
2016-05-16T06:07:28.730Z,964.91
2016-05-16T06:08:28.748Z,964.9
2016-05-16T06:09:28.766Z,964.92
2016-05-16T06:10:28.769Z,964.93
2016-05-16T06:11:28.771Z,964.91
2016-05-16T06:12:28.791Z,964.92
2016-05-16T06:13:28.793Z,964.97
2016-05-16T06:14:28.811Z,964.92
2016-05-16T06:15:28.813Z,964.95
2016-05-16T06:16:28.816Z,964.96
2016-05-16T06:17:28.834Z,964.98
2016-05-16T06:18:28.852Z,964.96
2016-05-16T06:19:28.856Z,964.99
2016-05-16T06:20:28.858Z,964.95
2016-05-16T06:21:28.861Z,964.96
2016-05-16T06:22:28.879Z,965
2016-05-16T06:23:28.882Z,964.96
2016-05-16T06:24:28.901Z,964.97
2016-05-16T06:25:28.903Z,964.94
2016-05-16T06:26:28.921Z,964.99
2016-05-16T06:27:28.924Z,965
2016-05-16T06:28:28.942Z,964.98
2016-05-16T06:29:28.945Z,964.98
2016-05-16T06:30:28.964Z,964.96
2016-05-16T06:31:28.966Z,964.96
2016-05-16T06:32:28.970Z,964.97
2016-05-16T06:33:28.986Z,964.97
2016-05-16T06:34:28.990Z,964.92
2016-05-16T06:35:29.071Z,964.95
2016-05-16T06:36:29.026Z,964.94
2016-05-16T06:37:29.029Z,964.97
2016-05-16T06:38:29.031Z,964.99
2016-05-16T06:39:29.034Z,964.99
2016-05-16T06:40:29.053Z,965
2016-05-16T06:41:29.056Z,964.99
2016-05-16T06:42:29.074Z,964.99
2016-05-16T06:43:29.077Z,964.98
2016-05-16T06:44:29.079Z,965.09
2016-05-16T06:45:29.082Z,965.04
2016-05-16T06:46:29.100Z,965.07
2016-05-16T06:47:29.103Z,965.04
2016-05-16T06:48:29.122Z,965.04
2016-05-16T06:49:29.140Z,965.08
2016-05-16T06:50:29.143Z,965.08
2016-05-16T06:51:29.146Z,965.07
2016-05-16T06:52:29.163Z,965.07
2016-05-16T06:53:29.182Z,965.09
2016-05-16T06:54:29.184Z,965.08
2016-05-16T06:55:29.187Z,965.08
2016-05-16T06:56:29.190Z,965.14
2016-05-16T06:57:29.208Z,965.11
2016-05-16T06:58:29.210Z,965.1
2016-05-16T06:59:29.229Z,965.1
2016-05-16T07:00:29.231Z,965.1
2016-05-16T07:01:29.250Z,965.09
2016-05-16T07:02:29.284Z,965.12
2016-05-16T07:03:29.255Z,965.09
2016-05-16T07:04:29.274Z,965.11
2016-05-16T07:05:29.276Z,965.14
2016-05-16T07:06:29.294Z,965.13
2016-05-16T07:07:29.298Z,965.11
2016-05-16T07:08:29.300Z,965.18
2016-05-16T07:09:29.319Z,965.15
2016-05-16T07:10:29.321Z,965.11
2016-05-16T07:11:29.339Z,965.15
2016-05-16T07:12:29.342Z,965.1
2016-05-16T07:13:29.361Z,965.15
2016-05-16T07:14:29.363Z,965.1
2016-05-16T07:15:29.381Z,965.11
2016-05-16T07:16:29.384Z,965.07
2016-05-16T07:17:29.402Z,965.05
2016-05-16T07:18:29.405Z,965.07
2016-05-16T07:19:29.407Z,965.06
2016-05-16T07:20:29.426Z,965.07
2016-05-16T07:21:29.429Z,965.02
2016-05-16T07:22:29.447Z,965.04
2016-05-16T07:23:29.450Z,965.05
2016-05-16T07:24:29.468Z,965.02
2016-05-16T07:25:29.471Z,965.04
2016-05-16T07:26:29.489Z,964.99
2016-05-16T07:27:29.492Z,965.01
2016-05-16T07:28:29.495Z,964.96
2016-05-16T07:29:29.512Z,964.98
2016-05-16T07:30:29.516Z,964.96
2016-05-16T07:31:29.518Z,964.95
2016-05-16T07:32:29.536Z,964.93
2016-05-16T07:33:29.539Z,964.95
2016-05-16T07:34:29.557Z,965.01
2016-05-16T07:35:29.560Z,964.95
2016-05-16T07:36:29.562Z,964.96
2016-05-16T07:37:29.581Z,964.95
2016-05-16T07:38:29.584Z,964.94
2016-05-16T07:39:29.603Z,964.92
2016-05-16T07:40:29.606Z,964.95
2016-05-16T07:41:29.622Z,964.96
2016-05-16T07:42:29.642Z,964.93
2016-05-16T07:43:29.644Z,964.94
2016-05-16T07:44:29.647Z,964.95
2016-05-16T07:45:29.649Z,964.95
2016-05-16T07:46:29.668Z,964.91
2016-05-16T07:47:29.670Z,964.93
2016-05-16T07:48:29.688Z,964.9
2016-05-16T07:49:29.708Z,964.89
2016-05-16T07:50:30.022Z,964.94
2016-05-16T07:51:29.713Z,964.9
2016-05-16T07:52:29.730Z,964.9
2016-05-16T07:53:29.733Z,964.92
2016-05-16T07:54:29.752Z,964.96
2016-05-16T07:55:29.754Z,964.9
2016-05-16T07:56:29.757Z,964.91
2016-05-16T07:57:29.775Z,964.9
2016-05-16T07:58:29.779Z,964.87
2016-05-16T07:59:29.797Z,964.92
2016-05-16T08:00:29.799Z,964.92
2016-05-16T08:01:29.818Z,964.9
2016-05-16T08:02:29.820Z,964.91
2016-05-16T08:03:29.823Z,964.9
2016-05-16T08:04:29.841Z,964.85
2016-05-16T08:05:29.844Z,964.86
2016-05-16T08:06:29.862Z,964.85
2016-05-16T08:07:29.865Z,964.87
2016-05-16T08:08:29.883Z,964.84
2016-05-16T08:09:29.886Z,964.85
2016-05-16T08:10:29.904Z,964.85
2016-05-16T08:11:29.906Z,964.88
2016-05-16T08:12:29.909Z,964.83
2016-05-16T08:13:29.927Z,964.83
2016-05-16T08:14:29.931Z,964.84
2016-05-16T08:15:29.950Z,964.83
2016-05-16T08:16:29.952Z,964.84
2016-05-16T08:17:29.955Z,964.86
2016-05-16T08:18:29.972Z,964.81
2016-05-16T08:19:38.647Z,964.84
2016-05-16T08:20:29.994Z,964.83
2016-05-16T08:21:29.996Z,964.9
2016-05-16T08:22:30.015Z,964.89
2016-05-16T08:23:30.018Z,964.84
2016-05-16T08:24:30.021Z,964.84
2016-05-16T08:25:30.038Z,964.83
2016-05-16T08:26:30.041Z,964.91
2016-05-16T08:27:30.059Z,964.86
2016-05-16T08:28:30.093Z,964.88
2016-05-16T08:29:30.079Z,964.86
2016-05-16T08:30:30.082Z,964.86
2016-05-16T08:31:30.102Z,964.9
2016-05-16T08:32:30.104Z,964.84
2016-05-16T08:33:30.154Z,964.88
2016-05-16T08:34:30.125Z,964.92
2016-05-16T08:35:30.346Z,964.88
2016-05-16T08:36:30.146Z,964.93
2016-05-16T08:37:30.148Z,964.92
2016-05-16T08:38:30.167Z,964.94
2016-05-16T08:39:30.170Z,964.94
2016-05-16T08:40:30.188Z,964.92
2016-05-16T08:41:30.191Z,964.94
2016-05-16T08:42:30.194Z,964.91
2016-05-16T08:43:30.211Z,964.92
2016-05-16T08:44:30.215Z,964.9
2016-05-16T08:45:30.232Z,964.89
2016-05-16T08:46:30.235Z,964.88
2016-05-16T08:47:30.254Z,964.87
2016-05-16T08:48:30.256Z,964.85
2016-05-16T08:49:30.275Z,964.85
2016-05-16T08:50:30.277Z,964.83
2016-05-16T08:51:30.296Z,964.8
2016-05-16T08:52:30.299Z,964.81
2016-05-16T08:53:30.301Z,964.83
2016-05-16T08:54:30.319Z,964.81
2016-05-16T08:55:30.322Z,964.83
2016-05-16T08:56:30.325Z,964.75
2016-05-16T08:57:30.343Z,964.85
2016-05-16T08:58:30.346Z,964.82
2016-05-16T08:59:30.364Z,964.75
2016-05-16T09:00:30.367Z,964.77
2016-05-16T09:01:30.384Z,964.77
2016-05-16T09:02:30.387Z,964.76
2016-05-16T09:03:30.407Z,964.75
2016-05-16T09:04:30.424Z,964.72
2016-05-16T09:05:30.412Z,964.72
2016-05-16T09:06:30.429Z,964.76
2016-05-16T09:07:30.432Z,964.73
2016-05-16T09:08:30.451Z,964.76
2016-05-16T09:09:30.453Z,964.71
2016-05-16T09:10:30.456Z,964.71
2016-05-16T09:11:30.475Z,964.69
2016-05-16T09:12:30.525Z,964.72
2016-05-16T09:13:30.495Z,964.82
2016-05-16T09:14:30.514Z,964.75
2016-05-16T09:15:30.516Z,964.79
2016-05-16T09:16:30.519Z,964.73
2016-05-16T09:17:30.537Z,964.77
2016-05-16T09:18:30.540Z,964.78
2016-05-16T09:19:30.559Z,964.72
2016-05-16T09:20:30.577Z,964.76
2016-05-16T09:21:30.564Z,964.72
2016-05-16T09:22:30.582Z,964.68
2016-05-16T09:23:30.585Z,964.68
2016-05-16T09:24:30.603Z,964.67
2016-05-16T09:25:30.606Z,964.67
2016-05-16T09:26:30.608Z,964.64
2016-05-16T09:27:30.627Z,964.63
2016-05-16T09:28:30.630Z,964.68
2016-05-16T09:29:30.648Z,964.7
2016-05-16T09:30:30.666Z,964.67
2016-05-16T09:31:30.668Z,964.68
2016-05-16T09:32:30.687Z,964.63
2016-05-16T09:33:30.690Z,964.63
2016-05-16T09:34:30.693Z,964.65
2016-05-16T09:35:30.712Z,964.65
2016-05-16T09:36:30.714Z,964.65
2016-05-16T09:37:30.732Z,964.66
2016-05-16T09:38:30.734Z,964.62
2016-05-16T09:39:30.737Z,964.61
2016-05-16T09:40:30.756Z,964.65
2016-05-16T09:41:30.758Z,964.62
2016-05-16T09:42:30.776Z,964.66
2016-05-16T09:43:30.779Z,964.63
2016-05-16T09:44:30.814Z,964.59
2016-05-16T09:45:30.816Z,964.6
2016-05-16T09:46:30.803Z,964.58
2016-05-16T09:47:30.821Z,964.6
2016-05-16T09:48:30.839Z,964.58
2016-05-16T09:49:30.842Z,964.57
2016-05-16T09:50:30.844Z,964.54
2016-05-16T09:51:30.864Z,964.54
2016-05-16T09:52:30.866Z,964.58
2016-05-16T09:53:30.885Z,964.54
2016-05-16T09:54:30.887Z,964.59
2016-05-16T09:55:30.890Z,964.58
2016-05-16T09:56:30.908Z,964.59
2016-05-16T09:57:30.927Z,964.54
2016-05-16T09:58:30.930Z,964.54
2016-05-16T09:59:30.932Z,964.53
2016-05-16T10:00:30.950Z,964.55
2016-05-16T10:01:30.952Z,964.56
2016-05-16T10:02:30.971Z,964.55
2016-05-16T10:03:30.973Z,964.6
2016-05-16T10:04:30.976Z,964.6
2016-05-16T10:05:30.995Z,964.6
2016-05-16T10:06:30.998Z,964.61
2016-05-16T10:07:31.016Z,964.6
2016-05-16T10:08:31.018Z,964.6
2016-05-16T10:09:31.037Z,964.6
2016-05-16T10:10:31.039Z,964.57
2016-05-16T10:11:31.058Z,964.56
2016-05-16T10:12:31.061Z,964.55
2016-05-16T10:13:31.079Z,964.56
2016-05-16T10:14:31.082Z,964.57
2016-05-16T10:15:31.334Z,964.54
2016-05-16T10:16:31.103Z,964.52
2016-05-16T10:17:31.105Z,964.49
2016-05-16T10:18:31.123Z,964.53
2016-05-16T10:19:31.125Z,964.52
2016-05-16T10:20:31.145Z,964.52
2016-05-16T10:21:31.147Z,964.55
2016-05-16T10:22:31.150Z,964.51
2016-05-16T10:23:31.169Z,964.56
2016-05-16T10:24:31.171Z,964.55
2016-05-16T10:25:31.189Z,964.52
2016-05-16T10:26:31.191Z,964.53
2016-05-16T10:27:31.210Z,964.59
2016-05-16T10:28:31.213Z,964.54
2016-05-16T10:29:31.216Z,964.57
2016-05-16T10:30:31.235Z,964.59
2016-05-16T10:31:31.237Z,964.58
2016-05-16T10:32:31.255Z,964.58
2016-05-16T10:33:31.257Z,964.62
2016-05-16T10:34:31.276Z,964.6
2016-05-16T10:35:31.278Z,964.6
2016-05-16T10:36:31.297Z,964.64
2016-05-16T10:37:31.299Z,964.65
2016-05-16T10:38:31.317Z,964.68
2016-05-16T10:39:31.321Z,964.66
2016-05-16T10:40:31.324Z,964.67
2016-05-16T10:41:31.342Z,964.72
2016-05-16T10:42:31.345Z,964.64
2016-05-16T10:43:31.347Z,964.63
2016-05-16T10:44:31.365Z,964.68
2016-05-16T10:45:31.367Z,964.63
2016-05-16T10:46:31.386Z,964.64
2016-05-16T10:47:31.405Z,964.62
2016-05-16T10:48:31.408Z,964.6
2016-05-16T10:49:31.410Z,964.58
2016-05-16T10:50:31.428Z,964.58
2016-05-16T10:51:31.430Z,964.53
2016-05-16T10:52:31.434Z,964.55
2016-05-16T10:53:31.467Z,964.54
2016-05-16T10:54:31.470Z,964.51
2016-05-16T10:55:31.473Z,964.54
2016-05-16T10:56:31.475Z,964.53
2016-05-16T10:57:31.534Z,964.51
2016-05-16T10:58:31.584Z,964.54
2016-05-16T10:59:31.649Z,964.48
2016-05-16T11:00:31.699Z,964.47
2016-05-16T11:01:31.763Z,964.51
2016-05-16T11:02:31.787Z,964.51
2016-05-16T11:03:31.823Z,964.45
2016-05-16T11:04:31.842Z,964.47
2016-05-16T11:05:31.862Z,964.51
2016-05-16T11:06:31.898Z,964.46
2016-05-16T11:07:31.907Z,964.42
2016-05-16T11:08:31.931Z,964.46
2016-05-16T11:09:31.939Z,964.48
2016-05-16T11:10:31.964Z,964.44
2016-05-16T11:11:31.973Z,964.45
2016-05-16T11:12:31.993Z,964.41
2016-05-16T11:13:31.997Z,964.47
2016-05-16T11:14:32.019Z,964.41
2016-05-16T11:15:32.023Z,964.43
2016-05-16T11:16:32.029Z,964.42
2016-05-16T11:17:32.048Z,964.4
2016-05-16T11:18:32.051Z,964.43
2016-05-16T11:19:32.056Z,964.42
2016-05-16T11:20:32.073Z,964.39
2016-05-16T11:21:32.093Z,964.41
2016-05-16T11:22:32.097Z,964.35
2016-05-16T11:23:32.115Z,964.36
2016-05-16T11:24:32.119Z,964.36
2016-05-16T11:25:32.136Z,964.39
2016-05-16T11:26:32.139Z,964.34
2016-05-16T11:27:32.158Z,964.29
2016-05-16T11:28:32.161Z,964.21
2016-05-16T11:29:32.163Z,964.23
2016-05-16T11:30:32.182Z,964.29
2016-05-16T11:31:32.184Z,964.24
2016-05-16T11:32:32.187Z,964.23
2016-05-16T11:33:32.206Z,964.23
2016-05-16T11:34:32.208Z,964.17
2016-05-16T11:35:32.227Z,964.18
2016-05-16T11:36:32.229Z,964.19
2016-05-16T11:37:32.247Z,964.16
2016-05-16T11:38:32.250Z,964.16
2016-05-16T11:39:32.269Z,964.12
2016-05-16T11:40:32.271Z,964.11
2016-05-16T11:41:32.290Z,964.11
2016-05-16T11:42:32.292Z,964.12
2016-05-16T11:43:32.295Z,964.03
2016-05-16T11:44:32.313Z,964.07
2016-05-16T11:45:32.315Z,964.1
2016-05-16T11:46:32.335Z,964.07
2016-05-16T11:47:32.337Z,964.09
2016-05-16T11:48:32.355Z,964.02
2016-05-16T11:49:32.358Z,964.09
2016-05-16T11:50:32.548Z,964.03
2016-05-16T11:51:32.520Z,964.05
2016-05-16T11:52:32.397Z,964.02
2016-05-16T11:53:32.400Z,964
2016-05-16T11:54:32.418Z,964.04
2016-05-16T11:55:32.421Z,964.01
2016-05-16T11:56:32.423Z,963.97
2016-05-16T11:57:32.442Z,963.94
2016-05-16T11:58:32.444Z,964
2016-05-16T11:59:32.464Z,963.93
2016-05-16T12:00:32.466Z,963.96
2016-05-16T12:01:32.484Z,963.95
2016-05-16T12:02:32.487Z,963.9
2016-05-16T12:03:32.489Z,963.89
2016-05-16T12:04:32.508Z,963.87
2016-05-16T12:05:32.510Z,963.9
2016-05-16T12:06:32.528Z,963.88
2016-05-16T12:07:32.531Z,963.86
2016-05-16T12:08:32.550Z,963.84
2016-05-16T12:09:32.583Z,963.88
2016-05-16T12:10:32.571Z,963.84
2016-05-16T12:11:32.574Z,963.81
2016-05-16T12:12:32.591Z,963.77
2016-05-16T12:13:32.594Z,963.78
2016-05-16T12:14:32.613Z,963.74
2016-05-16T12:15:32.616Z,963.76
2016-05-16T12:16:32.634Z,963.73
2016-05-16T12:17:32.637Z,963.68
2016-05-16T12:18:32.654Z,963.68
2016-05-16T12:19:32.642Z,963.67
2016-05-16T12:20:32.659Z,963.71
2016-05-16T12:21:32.662Z,963.65
2016-05-16T12:22:32.682Z,963.64
2016-05-16T12:23:32.699Z,963.64
2016-05-16T12:24:32.702Z,963.62
2016-05-16T12:25:32.720Z,963.62
2016-05-16T12:26:32.723Z,963.61
2016-05-16T12:27:32.742Z,963.67
2016-05-16T12:28:32.744Z,963.63
2016-05-16T12:29:32.762Z,963.61
2016-05-16T12:30:32.765Z,963.58
2016-05-16T12:31:32.784Z,963.57